sensor_id;sensor_type;location;lat;lon;timestamp;P1;durP1;ratioP1;P2;durP2;ratioP2
41903;SDS011;27586;51.124;4.182;2024-02-15T00:00:27;11.50;;;6.28;;
41903;SDS011;27586;51.124;4.182;2024-02-15T00:02:53;13.90;;;6.30;;
41903;SDS011;27586;51.124;4.182;2024-02-15T00:05:19;12.65;;;6.55;;
41903;SDS011;27586;51.124;4.182;2024-02-15T00:07:45;11.88;;;6.45;;
41903;SDS011;27586;51.124;4.182;2024-02-15T00:10:13;15.55;;;6.78;;
41903;SDS011;27586;51.124;4.182;2024-02-15T00:12:39;11.50;;;6.05;;
41903;SDS011;27586;51.124;4.182;2024-02-15T00:15:05;12.18;;;6.13;;
41903;SDS011;27586;51.124;4.182;2024-02-15T00:17:31;14.75;;;6.38;;
41903;SDS011;27586;51.124;4.182;2024-02-15T00:19:58;11.27;;;5.57;;
41903;SDS011;27586;51.124;4.182;2024-02-15T00:22:25;12.05;;;6.07;;
41903;SDS011;27586;51.124;4.182;2024-02-15T00:24:50;11.57;;;6.30;;
41903;SDS011;27586;51.124;4.182;2024-02-15T00:27:16;10.82;;;5.78;;
41903;SDS011;27586;51.124;4.182;2024-02-15T00:29:42;11.00;;;5.65;;
41903;SDS011;27586;51.124;4.182;2024-02-15T00:32:08;10.23;;;5.32;;
41903;SDS011;27586;51.124;4.182;2024-02-15T00:34:35;11.00;;;5.97;;
41903;SDS011;27586;51.124;4.182;2024-02-15T00:37:03;12.35;;;5.40;;
41903;SDS011;27586;51.124;4.182;2024-02-15T00:39:29;14.27;;;6.00;;
41903;SDS011;27586;51.124;4.182;2024-02-15T00:41:56;14.23;;;6.00;;
41903;SDS011;27586;51.124;4.182;2024-02-15T00:44:22;5.95;;;4.80;;
41903;SDS011;27586;51.124;4.182;2024-02-15T00:46:48;10.27;;;5.20;;
41903;SDS011;27586;51.124;4.182;2024-02-15T00:49:13;13.35;;;5.28;;
41903;SDS011;27586;51.124;4.182;2024-02-15T00:51:39;10.13;;;4.90;;
41903;SDS011;27586;51.124;4.182;2024-02-15T00:54:05;14.35;;;5.65;;
41903;SDS011;27586;51.124;4.182;2024-02-15T00:56:31;10.48;;;4.95;;
41903;SDS011;27586;51.124;4.182;2024-02-15T00:58:59;11.27;;;4.93;;
41903;SDS011;27586;51.124;4.182;2024-02-15T01:01:25;11.68;;;5.57;;
41903;SDS011;27586;51.124;4.182;2024-02-15T01:03:51;11.05;;;4.60;;
41903;SDS011;27586;51.124;4.182;2024-02-15T01:06:17;12.65;;;5.18;;
41903;SDS011;27586;51.124;4.182;2024-02-15T01:08:43;9.98;;;4.95;;
41903;SDS011;27586;51.124;4.182;2024-02-15T01:11:09;9.25;;;5.07;;
41903;SDS011;27586;51.124;4.182;2024-02-15T01:13:34;11.48;;;5.35;;
41903;SDS011;27586;51.124;4.182;2024-02-15T01:16:00;11.23;;;5.18;;
41903;SDS011;27586;51.124;4.182;2024-02-15T01:18:29;11.60;;;5.32;;
41903;SDS011;27586;51.124;4.182;2024-02-15T01:20:56;7.45;;;4.68;;
41903;SDS011;27586;51.124;4.182;2024-02-15T01:23:22;9.13;;;5.13;;
41903;SDS011;27586;51.124;4.182;2024-02-15T01:25:48;10.77;;;5.18;;
41903;SDS011;27586;51.124;4.182;2024-02-15T01:28:14;13.57;;;5.35;;
41903;SDS011;27586;51.124;4.182;2024-02-15T01:30:40;12.63;;;5.25;;
41903;SDS011;27586;51.124;4.182;2024-02-15T01:33:09;8.95;;;4.82;;
41903;SDS011;27586;51.124;4.182;2024-02-15T01:35:36;11.75;;;5.00;;
41903;SDS011;27586;51.124;4.182;2024-02-15T01:38:02;9.40;;;4.55;;
41903;SDS011;27586;51.124;4.182;2024-02-15T01:40:27;9.20;;;4.40;;
41903;SDS011;27586;51.124;4.182;2024-02-15T01:42:53;9.35;;;4.82;;
41903;SDS011;27586;51.124;4.182;2024-02-15T01:45:20;9.27;;;5.13;;
41903;SDS011;27586;51.124;4.182;2024-02-15T01:47:46;9.40;;;4.60;;
41903;SDS011;27586;51.124;4.182;2024-02-15T01:50:13;9.38;;;4.75;;
41903;SDS011;27586;51.124;4.182;2024-02-15T01:52:41;8.82;;;4.70;;
41903;SDS011;27586;51.124;4.182;2024-02-15T01:55:12;10.27;;;4.47;;
41903;SDS011;27586;51.124;4.182;2024-02-15T01:57:40;10.32;;;4.88;;
41903;SDS011;27586;51.124;4.182;2024-02-15T02:00:10;8.40;;;4.65;;
41903;SDS011;27586;51.124;4.182;2024-02-15T02:02:38;9.43;;;4.65;;
41903;SDS011;27586;51.124;4.182;2024-02-15T02:05:06;10.73;;;5.20;;
41903;SDS011;27586;51.124;4.182;2024-02-15T02:07:32;14.20;;;5.50;;
41903;SDS011;27586;51.124;4.182;2024-02-15T02:09:58;10.98;;;5.80;;
41903;SDS011;27586;51.124;4.182;2024-02-15T02:12:24;9.95;;;5.85;;
41903;SDS011;27586;51.124;4.182;2024-02-15T02:14:52;13.60;;;5.88;;
41903;SDS011;27586;51.124;4.182;2024-02-15T02:17:19;13.45;;;6.10;;
41903;SDS011;27586;51.124;4.182;2024-02-15T02:19:45;11.43;;;5.60;;
41903;SDS011;27586;51.124;4.182;2024-02-15T02:22:11;11.00;;;5.55;;
41903;SDS011;27586;51.124;4.182;2024-02-15T02:27:31;11.75;;;5.90;;
41903;SDS011;27586;51.124;4.182;2024-02-15T02:29:57;8.60;;;5.50;;
41903;SDS011;27586;51.124;4.182;2024-02-15T02:32:24;13.63;;;5.57;;
41903;SDS011;27586;51.124;4.182;2024-02-15T02:34:51;11.85;;;5.72;;
41903;SDS011;27586;51.124;4.182;2024-02-15T02:37:25;12.00;;;5.50;;
41903;SDS011;27586;51.124;4.182;2024-02-15T02:39:51;14.05;;;6.53;;
41903;SDS011;27586;51.124;4.182;2024-02-15T02:42:17;11.32;;;5.50;;
41903;SDS011;27586;51.124;4.182;2024-02-15T02:44:43;11.52;;;4.93;;
41903;SDS011;27586;51.124;4.182;2024-02-15T02:47:09;10.65;;;5.13;;
41903;SDS011;27586;51.124;4.182;2024-02-15T02:49:35;9.32;;;5.63;;
41903;SDS011;27586;51.124;4.182;2024-02-15T02:52:01;10.80;;;5.40;;
41903;SDS011;27586;51.124;4.182;2024-02-15T02:54:28;10.77;;;5.78;;
41903;SDS011;27586;51.124;4.182;2024-02-15T02:56:54;7.72;;;5.28;;
41903;SDS011;27586;51.124;4.182;2024-02-15T02:59:20;10.15;;;6.18;;
41903;SDS011;27586;51.124;4.182;2024-02-15T03:01:46;11.05;;;5.85;;
41903;SDS011;27586;51.124;4.182;2024-02-15T03:04:14;11.88;;;5.78;;
41903;SDS011;27586;51.124;4.182;2024-02-15T03:06:42;11.02;;;5.78;;
41903;SDS011;27586;51.124;4.182;2024-02-15T03:09:08;9.95;;;5.35;;
41903;SDS011;27586;51.124;4.182;2024-02-15T03:11:34;11.05;;;5.13;;
41903;SDS011;27586;51.124;4.182;2024-02-15T03:14:01;9.98;;;4.88;;
41903;SDS011;27586;51.124;4.182;2024-02-15T03:16:29;10.02;;;5.40;;
41903;SDS011;27586;51.124;4.182;2024-02-15T03:18:56;9.45;;;4.97;;
41903;SDS011;27586;51.124;4.182;2024-02-15T03:21:21;10.85;;;4.88;;
41903;SDS011;27586;51.124;4.182;2024-02-15T03:23:47;10.20;;;5.00;;
41903;SDS011;27586;51.124;4.182;2024-02-15T03:26:13;10.75;;;4.68;;
41903;SDS011;27586;51.124;4.182;2024-02-15T03:28:39;10.05;;;4.22;;
41903;SDS011;27586;51.124;4.182;2024-02-15T03:31:04;9.38;;;3.92;;
41903;SDS011;27586;51.124;4.182;2024-02-15T03:33:30;8.00;;;4.28;;
41903;SDS011;27586;51.124;4.182;2024-02-15T03:35:59;9.75;;;4.07;;
41903;SDS011;27586;51.124;4.182;2024-02-15T03:38:26;6.95;;;4.13;;
41903;SDS011;27586;51.124;4.182;2024-02-15T03:40:55;9.95;;;4.05;;
41903;SDS011;27586;51.124;4.182;2024-02-15T03:43:21;8.80;;;3.92;;
41903;SDS011;27586;51.124;4.182;2024-02-15T03:45:48;7.85;;;3.97;;
41903;SDS011;27586;51.124;4.182;2024-02-15T03:48:14;9.15;;;4.65;;
41903;SDS011;27586;51.124;4.182;2024-02-15T03:50:40;9.05;;;4.65;;
41903;SDS011;27586;51.124;4.182;2024-02-15T03:53:06;7.05;;;3.85;;
41903;SDS011;27586;51.124;4.182;2024-02-15T03:55:36;9.18;;;3.97;;
41903;SDS011;27586;51.124;4.182;2024-02-15T03:58:01;9.80;;;4.72;;
41903;SDS011;27586;51.124;4.182;2024-02-15T04:00:27;10.85;;;4.03;;
41903;SDS011;27586;51.124;4.182;2024-02-15T04:02:53;8.98;;;4.40;;
41903;SDS011;27586;51.124;4.182;2024-02-15T04:05:20;9.95;;;4.55;;
41903;SDS011;27586;51.124;4.182;2024-02-15T04:07:48;11.23;;;4.45;;
41903;SDS011;27586;51.124;4.182;2024-02-15T04:10:14;7.82;;;4.22;;
41903;SDS011;27586;51.124;4.182;2024-02-15T04:12:39;7.78;;;4.22;;
41903;SDS011;27586;51.124;4.182;2024-02-15T04:15:08;7.63;;;4.32;;
41903;SDS011;27586;51.124;4.182;2024-02-15T04:17:39;7.00;;;4.07;;
41903;SDS011;27586;51.124;4.182;2024-02-15T04:20:06;6.60;;;4.25;;
41903;SDS011;27586;51.124;4.182;2024-02-15T04:22:32;8.10;;;4.07;;
41903;SDS011;27586;51.124;4.182;2024-02-15T04:25:02;8.43;;;4.72;;
41903;SDS011;27586;51.124;4.182;2024-02-15T04:27:31;10.10;;;4.40;;
41903;SDS011;27586;51.124;4.182;2024-02-15T04:29:57;11.75;;;4.30;;
41903;SDS011;27586;51.124;4.182;2024-02-15T04:32:24;8.68;;;3.97;;
41903;SDS011;27586;51.124;4.182;2024-02-15T04:34:49;8.95;;;3.70;;
41903;SDS011;27586;51.124;4.182;2024-02-15T04:37:16;7.00;;;4.00;;
41903;SDS011;27586;51.124;4.182;2024-02-15T04:39:43;5.70;;;3.75;;
41903;SDS011;27586;51.124;4.182;2024-02-15T04:42:08;5.78;;;3.90;;
41903;SDS011;27586;51.124;4.182;2024-02-15T04:44:39;9.85;;;3.90;;
41903;SDS011;27586;51.124;4.182;2024-02-15T04:47:05;9.38;;;3.55;;
41903;SDS011;27586;51.124;4.182;2024-02-15T04:49:31;5.25;;;3.70;;
41903;SDS011;27586;51.124;4.182;2024-02-15T04:51:57;5.95;;;3.55;;
41903;SDS011;27586;51.124;4.182;2024-02-15T04:54:23;5.30;;;3.55;;
41903;SDS011;27586;51.124;4.182;2024-02-15T04:56:49;5.43;;;3.67;;
41903;SDS011;27586;51.124;4.182;2024-02-15T04:59:19;5.95;;;3.30;;
41903;SDS011;27586;51.124;4.182;2024-02-15T05:01:46;5.22;;;3.38;;
41903;SDS011;27586;51.124;4.182;2024-02-15T05:04:12;7.25;;;3.63;;
41903;SDS011;27586;51.124;4.182;2024-02-15T05:06:38;9.02;;;3.33;;
41903;SDS011;27586;51.124;4.182;2024-02-15T05:09:05;6.70;;;3.40;;
41903;SDS011;27586;51.124;4.182;2024-02-15T05:11:41;6.35;;;3.35;;
41903;SDS011;27586;51.124;4.182;2024-02-15T05:14:11;8.40;;;3.78;;
41903;SDS011;27586;51.124;4.182;2024-02-15T05:16:37;6.43;;;3.80;;
41903;SDS011;27586;51.124;4.182;2024-02-15T05:19:11;7.38;;;3.40;;
41903;SDS011;27586;51.124;4.182;2024-02-15T05:21:37;5.82;;;2.88;;
41903;SDS011;27586;51.124;4.182;2024-02-15T05:24:03;7.00;;;3.08;;
41903;SDS011;27586;51.124;4.182;2024-02-15T05:26:29;7.95;;;3.67;;
41903;SDS011;27586;51.124;4.182;2024-02-15T05:28:55;5.50;;;3.17;;
41903;SDS011;27586;51.124;4.182;2024-02-15T05:31:21;5.60;;;3.00;;
41903;SDS011;27586;51.124;4.182;2024-02-15T05:33:50;3.95;;;3.08;;
41903;SDS011;27586;51.124;4.182;2024-02-15T05:36:19;5.57;;;3.28;;
41903;SDS011;27586;51.124;4.182;2024-02-15T05:38:53;5.78;;;3.05;;
41903;SDS011;27586;51.124;4.182;2024-02-15T05:41:19;3.45;;;2.88;;
41903;SDS011;27586;51.124;4.182;2024-02-15T05:43:46;7.22;;;2.97;;
41903;SDS011;27586;51.124;4.182;2024-02-15T05:46:13;6.13;;;2.92;;
41903;SDS011;27586;51.124;4.182;2024-02-15T05:48:39;4.63;;;3.05;;
41903;SDS011;27586;51.124;4.182;2024-02-15T05:51:06;5.97;;;2.80;;
41903;SDS011;27586;51.124;4.182;2024-02-15T05:53:33;4.57;;;2.85;;
41903;SDS011;27586;51.124;4.182;2024-02-15T05:56:01;9.82;;;3.13;;
41903;SDS011;27586;51.124;4.182;2024-02-15T05:58:31;6.55;;;2.95;;
41903;SDS011;27586;51.124;4.182;2024-02-15T06:00:57;5.57;;;2.75;;
41903;SDS011;27586;51.124;4.182;2024-02-15T06:03:29;6.68;;;3.17;;
41903;SDS011;27586;51.124;4.182;2024-02-15T06:05:59;4.82;;;3.38;;
41903;SDS011;27586;51.124;4.182;2024-02-15T06:08:27;7.47;;;3.28;;
41903;SDS011;27586;51.124;4.182;2024-02-15T06:10:56;9.35;;;3.78;;
41903;SDS011;27586;51.124;4.182;2024-02-15T06:13:22;9.23;;;4.18;;
41903;SDS011;27586;51.124;4.182;2024-02-15T06:15:49;7.32;;;4.18;;
41903;SDS011;27586;51.124;4.182;2024-02-15T06:18:18;7.18;;;3.85;;
41903;SDS011;27586;51.124;4.182;2024-02-15T06:20:52;8.43;;;4.30;;
41903;SDS011;27586;51.124;4.182;2024-02-15T06:23:18;10.70;;;4.65;;
41903;SDS011;27586;51.124;4.182;2024-02-15T06:25:45;8.30;;;4.18;;
41903;SDS011;27586;51.124;4.182;2024-02-15T06:28:16;9.13;;;4.40;;
41903;SDS011;27586;51.124;4.182;2024-02-15T06:31:05;12.05;;;5.45;;
41903;SDS011;27586;51.124;4.182;2024-02-15T06:33:50;8.93;;;5.03;;
41903;SDS011;27586;51.124;4.182;2024-02-15T06:36:38;11.73;;;5.97;;
41903;SDS011;27586;51.124;4.182;2024-02-15T06:39:30;9.88;;;5.25;;
41903;SDS011;27586;51.124;4.182;2024-02-15T06:42:08;10.07;;;5.43;;
41903;SDS011;27586;51.124;4.182;2024-02-15T06:44:36;10.32;;;5.25;;
41903;SDS011;27586;51.124;4.182;2024-02-15T06:47:03;9.27;;;5.05;;
41903;SDS011;27586;51.124;4.182;2024-02-15T06:49:29;6.57;;;4.43;;
41903;SDS011;27586;51.124;4.182;2024-02-15T06:51:55;9.05;;;4.78;;
41903;SDS011;27586;51.124;4.182;2024-02-15T06:54:21;8.13;;;4.63;;
41903;SDS011;27586;51.124;4.182;2024-02-15T06:56:47;10.20;;;5.15;;
41903;SDS011;27586;51.124;4.182;2024-02-15T06:59:13;10.10;;;5.05;;
41903;SDS011;27586;51.124;4.182;2024-02-15T07:01:40;12.93;;;5.57;;
41903;SDS011;27586;51.124;4.182;2024-02-15T07:04:07;7.85;;;4.97;;
41903;SDS011;27586;51.124;4.182;2024-02-15T07:06:35;9.63;;;4.70;;
41903;SDS011;27586;51.124;4.182;2024-02-15T07:09:02;9.25;;;4.45;;
41903;SDS011;27586;51.124;4.182;2024-02-15T07:11:29;8.65;;;5.10;;
41903;SDS011;27586;51.124;4.182;2024-02-15T07:13:55;10.45;;;5.30;;
41903;SDS011;27586;51.124;4.182;2024-02-15T07:16:22;8.95;;;4.80;;
41903;SDS011;27586;51.124;4.182;2024-02-15T07:18:48;7.88;;;4.53;;
41903;SDS011;27586;51.124;4.182;2024-02-15T07:21:14;7.82;;;4.18;;
41903;SDS011;27586;51.124;4.182;2024-02-15T07:23:44;6.18;;;3.75;;
41903;SDS011;27586;51.124;4.182;2024-02-15T07:26:11;8.30;;;3.90;;
41903;SDS011;27586;51.124;4.182;2024-02-15T07:28:37;8.00;;;3.65;;
41903;SDS011;27586;51.124;4.182;2024-02-15T07:31:04;5.32;;;3.10;;
41903;SDS011;27586;51.124;4.182;2024-02-15T07:33:29;6.35;;;2.97;;
41903;SDS011;27586;51.124;4.182;2024-02-15T07:35:55;6.60;;;3.33;;
41903;SDS011;27586;51.124;4.182;2024-02-15T07:38:21;5.40;;;3.00;;
41903;SDS011;27586;51.124;4.182;2024-02-15T07:40:50;6.28;;;2.90;;
41903;SDS011;27586;51.124;4.182;2024-02-15T07:43:16;7.38;;;3.15;;
41903;SDS011;27586;51.124;4.182;2024-02-15T07:45:42;7.47;;;3.33;;
41903;SDS011;27586;51.124;4.182;2024-02-15T07:48:07;3.53;;;2.67;;
41903;SDS011;27586;51.124;4.182;2024-02-15T07:50:33;4.85;;;3.05;;
41903;SDS011;27586;51.124;4.182;2024-02-15T07:52:59;6.70;;;3.25;;
41903;SDS011;27586;51.124;4.182;2024-02-15T07:55:24;4.38;;;2.75;;
41903;SDS011;27586;51.124;4.182;2024-02-15T07:57:50;3.63;;;2.38;;
41903;SDS011;27586;51.124;4.182;2024-02-15T08:00:17;6.05;;;2.50;;
41903;SDS011;27586;51.124;4.182;2024-02-15T08:02:44;7.15;;;2.80;;
41903;SDS011;27586;51.124;4.182;2024-02-15T08:05:11;4.57;;;2.42;;
41903;SDS011;27586;51.124;4.182;2024-02-15T08:07:38;4.68;;;2.50;;
41903;SDS011;27586;51.124;4.182;2024-02-15T08:10:07;6.43;;;2.75;;
41903;SDS011;27586;51.124;4.182;2024-02-15T08:12:38;4.78;;;2.83;;
41903;SDS011;27586;51.124;4.182;2024-02-15T08:15:05;7.32;;;3.17;;
41903;SDS011;27586;51.124;4.182;2024-02-15T08:17:36;7.05;;;3.10;;
41903;SDS011;27586;51.124;4.182;2024-02-15T08:20:12;5.53;;;2.97;;
41903;SDS011;27586;51.124;4.182;2024-02-15T08:22:39;7.70;;;3.28;;
41903;SDS011;27586;51.124;4.182;2024-02-15T08:25:12;5.60;;;3.20;;
41903;SDS011;27586;51.124;4.182;2024-02-15T08:27:40;6.70;;;3.50;;
41903;SDS011;27586;51.124;4.182;2024-02-15T08:30:14;6.18;;;3.13;;
41903;SDS011;27586;51.124;4.182;2024-02-15T08:32:41;5.35;;;3.15;;
41903;SDS011;27586;51.124;4.182;2024-02-15T08:35:08;5.80;;;3.35;;
41903;SDS011;27586;51.124;4.182;2024-02-15T08:37:35;4.80;;;3.33;;
41903;SDS011;27586;51.124;4.182;2024-02-15T08:40:03;6.75;;;2.85;;
41903;SDS011;27586;51.124;4.182;2024-02-15T08:42:37;4.90;;;2.80;;
41903;SDS011;27586;51.124;4.182;2024-02-15T08:45:04;4.45;;;2.42;;
41903;SDS011;27586;51.124;4.182;2024-02-15T08:47:30;5.25;;;2.92;;
41903;SDS011;27586;51.124;4.182;2024-02-15T08:49:56;5.43;;;2.47;;
41903;SDS011;27586;51.124;4.182;2024-02-15T08:52:23;7.03;;;3.00;;
41903;SDS011;27586;51.124;4.182;2024-02-15T08:54:51;4.13;;;2.47;;
41903;SDS011;27586;51.124;4.182;2024-02-15T08:57:17;6.65;;;2.35;;
41903;SDS011;27586;51.124;4.182;2024-02-15T08:59:44;6.20;;;2.55;;
41903;SDS011;27586;51.124;4.182;2024-02-15T09:02:09;6.00;;;2.60;;
41903;SDS011;27586;51.124;4.182;2024-02-15T09:04:35;3.65;;;2.33;;
41903;SDS011;27586;51.124;4.182;2024-02-15T09:07:01;5.13;;;2.50;;
41903;SDS011;27586;51.124;4.182;2024-02-15T09:09:29;5.65;;;2.88;;
41903;SDS011;27586;51.124;4.182;2024-02-15T09:11:56;6.88;;;2.83;;
41903;SDS011;27586;51.124;4.182;2024-02-15T09:14:22;4.95;;;2.40;;
41903;SDS011;27586;51.124;4.182;2024-02-15T09:16:48;5.60;;;2.50;;
41903;SDS011;27586;51.124;4.182;2024-02-15T09:19:13;4.47;;;2.50;;
41903;SDS011;27586;51.124;4.182;2024-02-15T09:21:39;4.25;;;2.25;;
41903;SDS011;27586;51.124;4.182;2024-02-15T09:24:05;4.70;;;2.35;;
41903;SDS011;27586;51.124;4.182;2024-02-15T09:26:31;4.50;;;2.17;;
41903;SDS011;27586;51.124;4.182;2024-02-15T09:28:57;5.35;;;2.50;;
41903;SDS011;27586;51.124;4.182;2024-02-15T09:31:22;5.43;;;2.50;;
41903;SDS011;27586;51.124;4.182;2024-02-15T09:33:49;4.07;;;2.60;;
41903;SDS011;27586;51.124;4.182;2024-02-15T09:36:15;5.47;;;2.60;;
41903;SDS011;27586;51.124;4.182;2024-02-15T09:38:41;4.28;;;2.45;;
41903;SDS011;27586;51.124;4.182;2024-02-15T09:41:07;4.20;;;2.50;;
41903;SDS011;27586;51.124;4.182;2024-02-15T09:43:34;5.22;;;2.33;;
41903;SDS011;27586;51.124;4.182;2024-02-15T09:46:00;7.25;;;2.50;;
41903;SDS011;27586;51.124;4.182;2024-02-15T09:48:29;5.00;;;2.53;;
41903;SDS011;27586;51.124;4.182;2024-02-15T09:50:56;4.97;;;2.92;;
41903;SDS011;27586;51.124;4.182;2024-02-15T09:53:23;4.07;;;2.30;;
41903;SDS011;27586;51.124;4.182;2024-02-15T09:55:53;3.20;;;2.45;;
41903;SDS011;27586;51.124;4.182;2024-02-15T09:58:19;4.22;;;2.25;;
41903;SDS011;27586;51.124;4.182;2024-02-15T10:00:48;3.97;;;2.20;;
41903;SDS011;27586;51.124;4.182;2024-02-15T10:03:16;3.97;;;2.20;;
41903;SDS011;27586;51.124;4.182;2024-02-15T10:05:45;4.47;;;2.20;;
41903;SDS011;27586;51.124;4.182;2024-02-15T10:08:14;3.45;;;2.10;;
41903;SDS011;27586;51.124;4.182;2024-02-15T10:10:40;5.90;;;2.45;;
41903;SDS011;27586;51.124;4.182;2024-02-15T10:13:08;2.92;;;2.00;;
41903;SDS011;27586;51.124;4.182;2024-02-15T10:15:39;5.40;;;2.20;;
41903;SDS011;27586;51.124;4.182;2024-02-15T10:18:08;4.95;;;2.10;;
41903;SDS011;27586;51.124;4.182;2024-02-15T10:20:41;4.35;;;1.90;;
41903;SDS011;27586;51.124;4.182;2024-02-15T10:23:10;4.05;;;1.95;;
41903;SDS011;27586;51.124;4.182;2024-02-15T10:25:37;3.20;;;2.00;;
41903;SDS011;27586;51.124;4.182;2024-02-15T10:28:07;3.78;;;1.98;;
41903;SDS011;27586;51.124;4.182;2024-02-15T10:30:34;3.47;;;2.10;;
41903;SDS011;27586;51.124;4.182;2024-02-15T10:33:04;6.70;;;2.00;;
41903;SDS011;27586;51.124;4.182;2024-02-15T10:35:31;5.50;;;2.00;;
41903;SDS011;27586;51.124;4.182;2024-02-15T10:38:19;6.82;;;2.33;;
41903;SDS011;27586;51.124;4.182;2024-02-15T10:40:50;5.80;;;3.05;;
41903;SDS011;27586;51.124;4.182;2024-02-15T10:43:30;5.40;;;3.35;;
41903;SDS011;27586;51.124;4.182;2024-02-15T10:45:57;5.03;;;3.42;;
41903;SDS011;27586;51.124;4.182;2024-02-15T10:48:23;6.38;;;2.92;;
41903;SDS011;27586;51.124;4.182;2024-02-15T10:50:49;5.78;;;2.67;;
41903;SDS011;27586;51.124;4.182;2024-02-15T10:53:23;5.78;;;2.30;;
41903;SDS011;27586;51.124;4.182;2024-02-15T10:58:46;8.13;;;3.85;;
41903;SDS011;27586;51.124;4.182;2024-02-15T11:01:16;7.70;;;4.07;;
41903;SDS011;27586;51.124;4.182;2024-02-15T11:04:02;5.95;;;3.10;;
41903;SDS011;27586;51.124;4.182;2024-02-15T11:06:33;6.68;;;3.70;;
41903;SDS011;27586;51.124;4.182;2024-02-15T11:09:03;7.57;;;3.90;;
41903;SDS011;27586;51.124;4.182;2024-02-15T11:11:31;4.85;;;3.28;;
41903;SDS011;27586;51.124;4.182;2024-02-15T11:16:56;9.82;;;3.70;;
41903;SDS011;27586;51.124;4.182;2024-02-15T11:19:44;9.25;;;3.97;;
41903;SDS011;27586;51.124;4.182;2024-02-15T11:22:15;5.43;;;2.88;;
41903;SDS011;27586;51.124;4.182;2024-02-15T11:24:45;6.25;;;3.08;;
41903;SDS011;27586;51.124;4.182;2024-02-15T11:27:28;7.13;;;3.00;;
41903;SDS011;27586;51.124;4.182;2024-02-15T11:29:56;4.40;;;2.50;;
41903;SDS011;27586;51.124;4.182;2024-02-15T11:32:47;4.78;;;2.42;;
41903;SDS011;27586;51.124;4.182;2024-02-15T11:35:18;3.20;;;2.03;;
41903;SDS011;27586;51.124;4.182;2024-02-15T11:43:36;4.47;;;2.05;;
41903;SDS011;27586;51.124;4.182;2024-02-15T11:46:20;3.95;;;1.70;;
41903;SDS011;27586;51.124;4.182;2024-02-15T11:51:30;4.93;;;2.00;;
41903;SDS011;27586;51.124;4.182;2024-02-15T11:54:07;4.70;;;1.95;;
41903;SDS011;27586;51.124;4.182;2024-02-15T11:59:38;2.75;;;1.67;;
41903;SDS011;27586;51.124;4.182;2024-02-15T12:02:18;2.88;;;1.50;;
41903;SDS011;27586;51.124;4.182;2024-02-15T12:05:05;4.35;;;1.58;;
41903;SDS011;27586;51.124;4.182;2024-02-15T12:07:50;3.80;;;1.58;;
41903;SDS011;27586;51.124;4.182;2024-02-15T12:10:34;3.80;;;1.65;;
41903;SDS011;27586;51.124;4.182;2024-02-15T12:13:18;2.47;;;1.45;;
41903;SDS011;27586;51.124;4.182;2024-02-15T12:16:03;2.45;;;1.48;;
41903;SDS011;27586;51.124;4.182;2024-02-15T12:18:47;3.63;;;1.50;;
41903;SDS011;27586;51.124;4.182;2024-02-15T12:21:18;2.95;;;1.40;;
41903;SDS011;27586;51.124;4.182;2024-02-15T12:23:50;4.85;;;1.70;;
41903;SDS011;27586;51.124;4.182;2024-02-15T12:26:20;1.58;;;1.20;;
41903;SDS011;27586;51.124;4.182;2024-02-15T12:28:51;3.47;;;1.50;;
41903;SDS011;27586;51.124;4.182;2024-02-15T12:31:21;3.00;;;1.45;;
41903;SDS011;27586;51.124;4.182;2024-02-15T12:34:04;3.70;;;1.60;;
41903;SDS011;27586;51.124;4.182;2024-02-15T12:36:34;2.67;;;1.27;;
41903;SDS011;27586;51.124;4.182;2024-02-15T12:39:02;3.58;;;1.60;;
41903;SDS011;27586;51.124;4.182;2024-02-15T12:41:39;2.67;;;1.40;;
41903;SDS011;27586;51.124;4.182;2024-02-15T12:44:06;2.53;;;1.38;;
41903;SDS011;27586;51.124;4.182;2024-02-15T12:46:35;3.03;;;1.63;;
41903;SDS011;27586;51.124;4.182;2024-02-15T12:51:41;3.35;;;1.40;;
41903;SDS011;27586;51.124;4.182;2024-02-15T12:54:23;3.25;;;1.50;;
41903;SDS011;27586;51.124;4.182;2024-02-15T12:56:49;3.67;;;1.70;;
41903;SDS011;27586;51.124;4.182;2024-02-15T12:59:17;2.75;;;1.45;;
41903;SDS011;27586;51.124;4.182;2024-02-15T13:01:44;3.03;;;1.30;;
41903;SDS011;27586;51.124;4.182;2024-02-15T13:04:21;2.25;;;1.33;;
41903;SDS011;27586;51.124;4.182;2024-02-15T13:06:50;2.13;;;1.20;;
41903;SDS011;27586;51.124;4.182;2024-02-15T13:09:16;1.52;;;1.27;;
41903;SDS011;27586;51.124;4.182;2024-02-15T13:11:42;2.78;;;1.52;;
41903;SDS011;27586;51.124;4.182;2024-02-15T13:14:10;2.97;;;1.70;;
41903;SDS011;27586;51.124;4.182;2024-02-15T13:16:36;1.83;;;1.17;;
41903;SDS011;27586;51.124;4.182;2024-02-15T13:19:02;3.58;;;1.52;;
41903;SDS011;27586;51.124;4.182;2024-02-15T13:21:28;1.70;;;1.20;;
41903;SDS011;27586;51.124;4.182;2024-02-15T13:23:55;2.72;;;1.35;;
41903;SDS011;27586;51.124;4.182;2024-02-15T13:26:21;3.47;;;1.10;;
41903;SDS011;27586;51.124;4.182;2024-02-15T13:28:50;1.73;;;1.20;;
41903;SDS011;27586;51.124;4.182;2024-02-15T13:31:19;2.67;;;1.20;;
41903;SDS011;27586;51.124;4.182;2024-02-15T13:33:46;2.17;;;1.02;;
41903;SDS011;27586;51.124;4.182;2024-02-15T13:36:12;1.63;;;1.20;;
41903;SDS011;27586;51.124;4.182;2024-02-15T13:38:40;3.03;;;1.30;;
41903;SDS011;27586;51.124;4.182;2024-02-15T13:41:07;2.53;;;1.50;;
41903;SDS011;27586;51.124;4.182;2024-02-15T13:43:33;3.20;;;1.60;;
41903;SDS011;27586;51.124;4.182;2024-02-15T13:45:59;3.35;;;1.48;;
41903;SDS011;27586;51.124;4.182;2024-02-15T13:48:27;1.67;;;1.15;;
41903;SDS011;27586;51.124;4.182;2024-02-15T13:50:55;2.47;;;1.10;;
41903;SDS011;27586;51.124;4.182;2024-02-15T13:53:21;1.63;;;1.30;;
41903;SDS011;27586;51.124;4.182;2024-02-15T13:55:47;3.70;;;1.42;;
41903;SDS011;27586;51.124;4.182;2024-02-15T13:58:13;2.40;;;1.27;;
41903;SDS011;27586;51.124;4.182;2024-02-15T14:00:39;2.13;;;1.55;;
41903;SDS011;27586;51.124;4.182;2024-02-15T14:03:07;3.70;;;1.55;;
41903;SDS011;27586;51.124;4.182;2024-02-15T14:05:35;3.30;;;1.50;;
41903;SDS011;27586;51.124;4.182;2024-02-15T14:08:04;4.45;;;1.50;;
41903;SDS011;27586;51.124;4.182;2024-02-15T14:10:31;2.90;;;1.35;;
41903;SDS011;27586;51.124;4.182;2024-02-15T14:13:00;2.47;;;1.48;;
41903;SDS011;27586;51.124;4.182;2024-02-15T14:15:36;3.17;;;1.50;;
41903;SDS011;27586;51.124;4.182;2024-02-15T14:18:06;3.88;;;2.15;;
41903;SDS011;27586;51.124;4.182;2024-02-15T14:20:36;5.25;;;2.25;;
41903;SDS011;27586;51.124;4.182;2024-02-15T14:23:02;3.35;;;2.13;;
41903;SDS011;27586;51.124;4.182;2024-02-15T14:25:30;7.43;;;2.50;;
41903;SDS011;27586;51.124;4.182;2024-02-15T14:27:57;3.95;;;2.00;;
41903;SDS011;27586;51.124;4.182;2024-02-15T14:30:23;5.53;;;2.20;;
41903;SDS011;27586;51.124;4.182;2024-02-15T14:33:08;3.10;;;2.08;;
41903;SDS011;27586;51.124;4.182;2024-02-15T14:35:36;4.88;;;1.90;;
41903;SDS011;27586;51.124;4.182;2024-02-15T14:38:07;2.38;;;1.65;;
41903;SDS011;27586;51.124;4.182;2024-02-15T14:40:39;3.30;;;1.92;;
41903;SDS011;27586;51.124;4.182;2024-02-15T14:43:06;2.72;;;1.75;;
41903;SDS011;27586;51.124;4.182;2024-02-15T14:45:39;2.78;;;1.63;;
41903;SDS011;27586;51.124;4.182;2024-02-15T14:48:08;3.83;;;2.10;;
41903;SDS011;27586;51.124;4.182;2024-02-15T14:50:38;3.97;;;1.77;;
41903;SDS011;27586;51.124;4.182;2024-02-15T14:53:04;4.25;;;1.67;;
41903;SDS011;27586;51.124;4.182;2024-02-15T14:55:32;1.90;;;1.50;;
41903;SDS011;27586;51.124;4.182;2024-02-15T14:57:58;2.90;;;1.63;;
41903;SDS011;27586;51.124;4.182;2024-02-15T15:00:24;2.83;;;1.90;;
41903;SDS011;27586;51.124;4.182;2024-02-15T15:02:51;3.00;;;1.80;;
41903;SDS011;27586;51.124;4.182;2024-02-15T15:05:18;4.93;;;1.80;;
41903;SDS011;27586;51.124;4.182;2024-02-15T15:08:02;2.63;;;1.67;;
41903;SDS011;27586;51.124;4.182;2024-02-15T15:10:47;2.70;;;1.70;;
41903;SDS011;27586;51.124;4.182;2024-02-15T15:13:32;3.60;;;1.40;;
41903;SDS011;27586;51.124;4.182;2024-02-15T15:15:59;4.97;;;1.75;;